createdAt,value
2023-02-06T00:01:59.269Z,10.43
2023-02-06T00:04:32.102Z,8.98
2023-02-06T00:07:02.551Z,9.18
2023-02-06T00:09:33.332Z,9.75
2023-02-06T00:12:04.558Z,11.32
2023-02-06T00:14:37.759Z,7.68
2023-02-06T00:17:10.955Z,11.88
2023-02-06T00:19:44.947Z,8.10
2023-02-06T00:22:15.521Z,14.85
2023-02-06T00:24:45.790Z,11.90
2023-02-06T00:27:17.647Z,9.68
2023-02-06T00:29:48.095Z,11.52
2023-02-06T00:32:19.672Z,15.15
2023-02-06T00:34:51.955Z,9.98
2023-02-06T00:37:23.363Z,11.93
2023-02-06T00:39:54.094Z,19.17
2023-02-06T00:42:24.821Z,9.88
2023-02-06T00:44:55.179Z,11.15
2023-02-06T00:47:26.370Z,8.20
2023-02-06T00:49:59.286Z,9.13
2023-02-06T00:52:29.907Z,13.02
2023-02-06T00:55:00.527Z,12.07
2023-02-06T00:57:32.301Z,12.93
2023-02-06T01:00:03.960Z,20.58
2023-02-06T01:02:36.874Z,17.75
2023-02-06T01:05:09.989Z,11.95
2023-02-06T01:07:41.960Z,9.57
2023-02-06T01:10:14.552Z,15.18
2023-02-06T01:12:46.619Z,14.27
2023-02-06T01:15:18.629Z,12.48
2023-02-06T01:17:49.692Z,15.75
2023-02-06T01:20:21.940Z,10.10
2023-02-06T01:22:53.522Z,15.48
2023-02-06T01:25:23.495Z,10.38
2023-02-06T01:27:55.611Z,16.25
2023-02-06T01:30:26.524Z,16.40
2023-02-06T01:32:57.377Z,24.48
2023-02-06T01:35:30.263Z,15.50
2023-02-06T01:38:03.148Z,19.10
2023-02-06T01:40:34.686Z,12.00
2023-02-06T01:43:06.618Z,26.15
2023-02-06T01:45:44.552Z,13.45
2023-02-06T01:48:18.758Z,13.82
2023-02-06T01:51:00.257Z,12.07
2023-02-06T01:53:34.557Z,12.23
2023-02-06T01:56:07.847Z,10.88
2023-02-06T01:58:43.010Z,14.98
2023-02-06T02:01:14.318Z,13.85
2023-02-06T02:03:50.740Z,17.08
2023-02-06T02:06:27.433Z,19.25
2023-02-06T02:09:00.091Z,11.20
2023-02-06T02:11:33.805Z,10.23
2023-02-06T02:14:09.021Z,14.57
2023-02-06T02:16:47.884Z,12.93
2023-02-06T02:19:55.351Z,13.93
2023-02-06T02:22:53.268Z,11.00
2023-02-06T02:25:56.942Z,10.00
2023-02-06T02:29:18.819Z,13.80
2023-02-06T02:32:06.775Z,13.07
2023-02-06T02:35:17.074Z,12.20
2023-02-06T02:38:05.818Z,8.65
2023-02-06T02:40:47.791Z,10.57
2023-02-06T02:43:37.284Z,13.10
2023-02-06T02:46:15.236Z,14.25
2023-02-06T02:48:49.162Z,12.98
2023-02-06T02:51:23.114Z,15.05
2023-02-06T02:53:53.011Z,10.38
2023-02-06T02:56:24.930Z,11.40
2023-02-06T02:59:02.157Z,10.60
2023-02-06T03:01:37.417Z,13.30
2023-02-06T03:04:15.912Z,10.48
2023-02-06T03:07:09.636Z,8.48
2023-02-06T03:09:55.525Z,10.75
2023-02-06T03:12:35.013Z,11.30
2023-02-06T03:15:10.682Z,12.52
2023-02-06T03:17:44.392Z,9.23
2023-02-06T03:20:15.648Z,11.88
2023-02-06T03:22:52.996Z,10.50
2023-02-06T03:25:31.650Z,10.60
2023-02-06T03:28:04.392Z,10.75
2023-02-06T03:30:36.744Z,7.45
2023-02-06T03:33:10.092Z,8.68
2023-02-06T03:35:41.866Z,11.93
2023-02-06T03:38:14.055Z,7.93
2023-02-06T03:40:49.658Z,13.70
2023-02-06T03:43:22.682Z,8.13
2023-02-06T03:45:57.921Z,11.57
2023-02-06T03:48:33.762Z,9.02
2023-02-06T03:51:10.355Z,7.35
2023-02-06T03:53:45.791Z,8.05
2023-02-06T03:56:24.356Z,7.82
2023-02-06T03:58:57.493Z,8.88
2023-02-06T04:01:28.265Z,9.40
2023-02-06T04:03:59.421Z,9.57
2023-02-06T04:06:29.672Z,9.18
2023-02-06T04:09:02.073Z,8.55
2023-02-06T04:11:34.148Z,7.43
2023-02-06T04:14:05.367Z,9.82
2023-02-06T04:16:38.233Z,8.77
2023-02-06T04:19:08.703Z,8.05
2023-02-06T04:21:39.140Z,6.88
2023-02-06T04:24:10.992Z,8.70
2023-02-06T04:26:41.601Z,9.75
2023-02-06T04:29:14.117Z,20.48
2023-02-06T04:31:44.541Z,7.47
2023-02-06T04:34:16.130Z,7.47
2023-02-06T04:36:46.516Z,11.00
2023-02-06T04:39:20.515Z,11.68
2023-02-06T04:41:51.356Z,6.88
2023-02-06T04:44:23.393Z,10.80
2023-02-06T04:46:53.755Z,5.90
2023-02-06T04:49:25.205Z,6.28
2023-02-06T04:51:55.780Z,5.95
2023-02-06T04:54:28.660Z,5.97
2023-02-06T04:56:59.411Z,7.43
2023-02-06T04:59:29.663Z,8.05
2023-02-06T05:02:00.581Z,7.13
2023-02-06T05:04:32.127Z,7.55
2023-02-06T05:07:05.495Z,13.45
2023-02-06T05:09:39.156Z,7.97
2023-02-06T05:12:15.040Z,10.68
2023-02-06T05:14:46.156Z,11.25
2023-02-06T05:17:16.752Z,11.85
2023-02-06T05:19:47.460Z,8.90
2023-02-06T05:22:18.845Z,13.82
2023-02-06T05:24:50.331Z,11.40
2023-02-06T05:27:21.573Z,12.07
2023-02-06T05:29:53.084Z,10.18
2023-02-06T05:32:23.345Z,13.05
2023-02-06T05:34:54.591Z,8.60
2023-02-06T05:37:25.327Z,9.80
2023-02-06T05:39:59.632Z,11.65
2023-02-06T05:42:33.194Z,10.23
2023-02-06T05:45:04.980Z,12.13
2023-02-06T05:47:36.763Z,9.55
2023-02-06T05:50:10.149Z,9.82
2023-02-06T05:52:40.449Z,9.85
2023-02-06T05:55:17.438Z,15.73
2023-02-06T05:57:49.359Z,14.50
2023-02-06T06:00:21.682Z,14.13
2023-02-06T06:02:53.299Z,11.43
2023-02-06T06:05:23.930Z,10.82
2023-02-06T06:07:56.576Z,11.20
2023-02-06T06:10:29.909Z,11.48
2023-02-06T06:13:01.700Z,10.20
2023-02-06T06:15:32.196Z,8.52
2023-02-06T06:18:02.926Z,11.88
2023-02-06T06:20:35.665Z,15.63
2023-02-06T06:23:05.934Z,12.10
2023-02-06T06:25:40.129Z,9.75
2023-02-06T06:28:12.382Z,12.07
2023-02-06T06:30:43.208Z,12.95
2023-02-06T06:33:14.861Z,11.02
2023-02-06T06:35:45.844Z,12.75
2023-02-06T06:38:15.947Z,11.27
2023-02-06T06:40:49.644Z,15.90
2023-02-06T06:43:20.320Z,13.77
2023-02-06T06:45:52.399Z,13.40
2023-02-06T06:48:22.538Z,15.20
2023-02-06T06:50:54.878Z,12.77
2023-02-06T06:53:26.168Z,13.88
2023-02-06T06:56:04.294Z,11.73
2023-02-06T06:58:35.242Z,14.00
2023-02-06T07:01:06.069Z,20.70
2023-02-06T07:03:37.376Z,14.48
2023-02-06T07:06:08.115Z,12.82
2023-02-06T07:08:42.480Z,13.48
2023-02-06T07:11:16.379Z,15.32
2023-02-06T07:13:48.781Z,26.45
2023-02-06T07:16:19.486Z,17.25
2023-02-06T07:18:50.935Z,19.92
2023-02-06T07:21:21.452Z,17.52
2023-02-06T07:23:55.363Z,22.70
2023-02-06T07:26:28.623Z,13.63
2023-02-06T07:28:59.618Z,20.50
2023-02-06T07:31:31.162Z,13.68
2023-02-06T07:34:02.564Z,21.65
2023-02-06T07:36:32.834Z,15.13
2023-02-06T07:39:05.714Z,14.10
2023-02-06T07:41:38.999Z,18.77
2023-02-06T07:44:09.357Z,16.85
2023-02-06T07:46:39.783Z,16.63
2023-02-06T07:49:12.750Z,14.43
2023-02-06T07:51:45.294Z,15.80
2023-02-06T07:54:18.501Z,17.60
2023-02-06T07:56:53.873Z,21.77
2023-02-06T07:59:26.299Z,18.38
2023-02-06T08:01:56.889Z,18.70
2023-02-06T08:04:29.897Z,15.25
2023-02-06T08:07:01.089Z,13.93
2023-02-06T08:09:32.449Z,15.95
2023-02-06T08:12:07.077Z,21.77
2023-02-06T08:14:37.297Z,16.60
2023-02-06T08:17:10.275Z,21.02
2023-02-06T08:19:41.402Z,17.52
2023-02-06T08:22:12.487Z,16.35
2023-02-06T08:24:43.221Z,21.23
2023-02-06T08:27:14.918Z,16.95
2023-02-06T08:29:46.748Z,19.55
2023-02-06T08:32:17.156Z,16.30
2023-02-06T08:34:47.506Z,17.67
2023-02-06T08:37:21.044Z,17.05
2023-02-06T08:39:53.735Z,15.10
2023-02-06T08:42:25.640Z,20.33
2023-02-06T08:44:57.697Z,22.73
2023-02-06T08:47:28.245Z,17.30
2023-02-06T08:50:03.401Z,20.02
2023-02-06T08:52:35.362Z,18.23
2023-02-06T08:55:05.537Z,23.67
2023-02-06T08:57:37.754Z,26.85
2023-02-06T09:00:11.446Z,19.05
2023-02-06T09:02:43.489Z,26.67
2023-02-06T09:05:15.358Z,17.50
2023-02-06T09:07:46.019Z,33.50
2023-02-06T09:10:27.069Z,31.38
2023-02-06T09:13:01.142Z,25.35
2023-02-06T09:15:31.708Z,22.17
2023-02-06T09:18:01.910Z,26.58
2023-02-06T09:20:32.633Z,16.70
2023-02-06T09:23:02.736Z,31.40
2023-02-06T09:25:36.638Z,23.25
2023-02-06T09:28:09.647Z,23.95
2023-02-06T09:30:40.158Z,26.30
2023-02-06T09:33:10.528Z,26.95
2023-02-06T09:35:40.955Z,27.05
2023-02-06T09:38:11.323Z,28.75
2023-02-06T09:40:42.223Z,24.05
2023-02-06T09:43:17.468Z,31.50
2023-02-06T09:45:55.452Z,23.75
2023-02-06T09:48:29.866Z,30.50
2023-02-06T09:51:09.556Z,24.65
2023-02-06T09:53:50.091Z,27.08
2023-02-06T09:56:31.150Z,32.03
2023-02-06T09:59:12.740Z,29.85
2023-02-06T10:01:47.130Z,32.55
2023-02-06T10:04:40.945Z,25.10
2023-02-06T10:07:34.057Z,32.33
2023-02-06T10:10:09.737Z,24.77
2023-02-06T10:12:45.864Z,30.92
2023-02-06T10:15:27.506Z,26.63
2023-02-06T10:18:03.757Z,31.73
2023-02-06T10:20:43.456Z,25.77
2023-02-06T10:23:23.168Z,31.48
2023-02-06T10:26:02.158Z,26.05
2023-02-06T10:28:34.419Z,23.13
2023-02-06T10:31:21.368Z,28.45
2023-02-06T10:34:05.380Z,23.42
2023-02-06T10:36:49.989Z,27.00
2023-02-06T10:39:40.561Z,26.00
2023-02-06T10:42:22.910Z,30.50
2023-02-06T10:45:18.422Z,24.23
2023-02-06T10:47:59.801Z,24.55
2023-02-06T10:50:35.639Z,20.73
2023-02-06T10:53:15.790Z,23.70
2023-02-06T10:55:51.930Z,28.05
2023-02-06T10:58:27.810Z,31.02
2023-02-06T11:01:02.134Z,20.55
2023-02-06T11:03:39.778Z,33.17
2023-02-06T11:06:13.473Z,23.20
2023-02-06T11:08:48.985Z,31.05
2023-02-06T11:11:26.282Z,20.38
2023-02-06T11:13:59.986Z,21.77
2023-02-06T11:16:33.063Z,29.98
2023-02-06T11:19:21.779Z,19.50
2023-02-06T11:21:57.588Z,25.83
2023-02-06T11:24:30.596Z,18.92
2023-02-06T11:27:06.456Z,20.10
2023-02-06T11:29:43.152Z,18.20
2023-02-06T11:32:33.378Z,21.38
2023-02-06T11:35:20.149Z,22.05
2023-02-06T11:37:58.613Z,21.67
2023-02-06T11:40:32.068Z,20.40
2023-02-06T11:43:18.321Z,24.58
2023-02-06T11:45:50.109Z,23.60
2023-02-06T11:48:39.416Z,20.05
2023-02-06T11:51:14.997Z,25.73
2023-02-06T11:54:00.008Z,27.27
2023-02-06T11:56:31.293Z,29.38
2023-02-06T11:59:08.203Z,35.72
2023-02-06T12:01:47.044Z,24.15
2023-02-06T12:04:25.717Z,23.08
2023-02-06T12:07:03.526Z,25.70
2023-02-06T12:09:35.291Z,20.75
2023-02-06T12:12:13.019Z,19.95
2023-02-06T12:14:47.392Z,23.20
2023-02-06T12:17:28.404Z,21.38
2023-02-06T12:20:07.330Z,26.40
2023-02-06T12:22:47.119Z,25.35
2023-02-06T12:25:30.379Z,28.13
2023-02-06T12:28:14.446Z,23.27
2023-02-06T12:30:52.726Z,38.78
2023-02-06T12:33:35.051Z,20.45
2023-02-06T12:36:11.641Z,25.48
2023-02-06T12:38:50.794Z,24.20
2023-02-06T12:41:46.688Z,24.50
2023-02-06T12:44:27.948Z,27.25
2023-02-06T12:47:04.206Z,31.38
2023-02-06T12:49:43.812Z,25.02
2023-02-06T12:52:25.206Z,28.42
2023-02-06T12:55:02.689Z,32.13
2023-02-06T12:57:34.943Z,22.98
2023-02-06T13:00:31.805Z,31.58
2023-02-06T13:03:25.069Z,23.50
2023-02-06T13:05:57.924Z,26.52
2023-02-06T13:08:30.525Z,29.58
2023-02-06T13:11:09.962Z,21.13
2023-02-06T13:13:44.574Z,24.17
2023-02-06T13:16:17.055Z,30.15
2023-02-06T13:19:05.966Z,39.70
2023-02-06T13:21:37.382Z,23.17
2023-02-06T13:24:25.669Z,27.55
2023-02-06T13:27:14.762Z,27.45
2023-02-06T13:29:47.088Z,25.20
2023-02-06T13:32:53.891Z,26.10
2023-02-06T13:35:28.884Z,27.17
2023-02-06T13:38:39.093Z,39.28
2023-02-06T13:41:32.258Z,23.42
2023-02-06T13:44:08.234Z,26.15
2023-02-06T13:47:14.254Z,28.25
2023-02-06T13:50:14.536Z,27.77
2023-02-06T13:52:55.445Z,27.55
2023-02-06T13:55:44.665Z,23.95
2023-02-06T13:58:45.890Z,18.55
2023-02-06T14:01:24.042Z,20.15
2023-02-06T14:03:56.002Z,20.77
2023-02-06T14:06:45.379Z,19.55
2023-02-06T14:10:12.230Z,27.08
2023-02-06T14:12:56.460Z,22.15
2023-02-06T14:15:36.489Z,19.02
2023-02-06T14:18:31.114Z,20.50
2023-02-06T14:21:15.339Z,20.23
2023-02-06T14:24:06.696Z,29.45
2023-02-06T14:26:46.161Z,20.98
2023-02-06T14:29:28.625Z,18.92
2023-02-06T14:32:24.688Z,16.77
2023-02-06T14:35:23.616Z,19.23
2023-02-06T14:38:25.558Z,24.58
2023-02-06T14:41:00.992Z,16.70
2023-02-06T14:43:34.895Z,26.63
2023-02-06T14:46:09.816Z,18.00
2023-02-06T14:48:48.162Z,16.88
2023-02-06T14:51:30.958Z,15.23
2023-02-06T14:54:05.261Z,28.80
2023-02-06T14:56:39.149Z,21.92
2023-02-06T14:59:18.981Z,14.63
2023-02-06T15:01:52.568Z,18.58
2023-02-06T15:04:25.316Z,17.90
2023-02-06T15:07:03.126Z,21.00
2023-02-06T15:09:41.047Z,20.42
2023-02-06T15:12:21.612Z,18.42
2023-02-06T15:14:55.721Z,19.50
2023-02-06T15:17:28.464Z,18.15
2023-02-06T15:20:00.446Z,24.63
2023-02-06T15:22:35.375Z,30.83
2023-02-06T15:25:28.316Z,22.08
2023-02-06T15:28:05.742Z,16.23
2023-02-06T15:30:37.612Z,16.55
2023-02-06T15:33:12.395Z,20.67
2023-02-06T15:35:50.461Z,19.77
2023-02-06T15:38:24.082Z,20.35
2023-02-06T15:40:58.189Z,23.40
2023-02-06T15:43:30.986Z,29.30
2023-02-06T15:46:05.126Z,23.35
2023-02-06T15:48:42.658Z,26.45
2023-02-06T15:51:27.064Z,22.27
2023-02-06T15:54:19.779Z,32.47
2023-02-06T15:56:55.576Z,22.50
2023-02-06T15:59:30.063Z,20.85
2023-02-06T16:02:01.688Z,25.45
2023-02-06T16:04:37.038Z,20.85
2023-02-06T16:07:18.149Z,20.88
2023-02-06T16:09:57.349Z,26.75
2023-02-06T16:12:37.847Z,24.00
2023-02-06T16:15:30.326Z,21.48
2023-02-06T16:18:02.486Z,23.70
2023-02-06T16:20:42.665Z,24.95
2023-02-06T16:23:27.064Z,17.73
2023-02-06T16:26:14.868Z,17.02
2023-02-06T16:28:54.178Z,20.77
2023-02-06T16:31:25.363Z,25.42
2023-02-06T16:33:57.243Z,27.25
2023-02-06T16:36:27.870Z,23.98
2023-02-06T16:39:04.019Z,17.98
2023-02-06T16:41:39.491Z,24.00
2023-02-06T16:44:17.346Z,22.50
2023-02-06T16:46:48.737Z,21.13
2023-02-06T16:49:22.945Z,29.40
2023-02-06T16:51:56.187Z,21.15
2023-02-06T16:54:32.310Z,20.35
2023-02-06T16:57:11.236Z,19.60
2023-02-06T16:59:41.490Z,20.20
2023-02-06T17:02:14.327Z,20.35
2023-02-06T17:04:44.962Z,19.15
2023-02-06T17:07:18.512Z,21.40
2023-02-06T17:09:51.602Z,20.05
2023-02-06T17:12:27.157Z,22.67
2023-02-06T17:14:57.501Z,20.23
2023-02-06T17:17:30.538Z,25.42
2023-02-06T17:20:02.572Z,27.45
2023-02-06T17:22:32.852Z,29.20
2023-02-06T17:25:03.318Z,27.90
2023-02-06T17:27:35.830Z,27.67
2023-02-06T17:30:07.107Z,25.20
2023-02-06T17:32:42.154Z,25.20
2023-02-06T17:35:12.533Z,20.73
2023-02-06T17:37:43.629Z,29.55
2023-02-06T17:40:23.643Z,26.70
2023-02-06T17:42:56.522Z,28.63
2023-02-06T17:45:27.794Z,30.60
2023-02-06T17:47:59.187Z,20.38
2023-02-06T17:50:38.106Z,23.58
2023-02-06T17:53:11.217Z,17.63
2023-02-06T17:55:42.115Z,28.30
2023-02-06T17:58:19.173Z,32.95
2023-02-06T18:00:50.805Z,21.55
2023-02-06T18:03:21.837Z,26.17
2023-02-06T18:06:01.113Z,30.35
2023-02-06T18:08:33.667Z,23.15
2023-02-06T18:11:10.282Z,23.30
2023-02-06T18:13:44.357Z,28.55
2023-02-06T18:16:17.746Z,24.45
2023-02-06T18:18:51.735Z,34.58
2023-02-06T18:21:24.979Z,32.88
2023-02-06T18:23:58.358Z,30.10
2023-02-06T18:26:29.332Z,33.08
2023-02-06T18:29:06.141Z,28.60
2023-02-06T18:31:40.157Z,30.63
2023-02-06T18:34:11.013Z,77.53
2023-02-06T18:36:42.162Z,40.85
2023-02-06T18:39:14.826Z,43.03
2023-02-06T18:42:02.602Z,36.92
2023-02-06T18:44:41.822Z,35.03
2023-02-06T18:47:12.021Z,36.63
2023-02-06T18:49:42.597Z,42.47
2023-02-06T18:52:13.756Z,38.00
2023-02-06T18:54:44.178Z,35.58
2023-02-06T18:57:14.086Z,29.05
2023-02-06T18:59:51.181Z,36.28
2023-02-06T19:02:20.920Z,30.30
2023-02-06T19:04:50.761Z,39.17
2023-02-06T19:07:20.472Z,32.80
2023-02-06T19:09:50.060Z,38.58
2023-02-06T19:12:19.595Z,29.25
2023-02-06T19:14:50.854Z,35.38
2023-02-06T19:17:20.722Z,39.95
2023-02-06T19:19:50.633Z,38.90
2023-02-06T19:22:20.733Z,30.95
2023-02-06T19:24:51.515Z,43.88
2023-02-06T19:27:21.824Z,32.33
2023-02-06T19:29:53.428Z,41.70
2023-02-06T19:32:23.090Z,28.30
2023-02-06T19:34:52.603Z,35.65
2023-02-06T19:37:22.536Z,30.25
2023-02-06T19:39:52.176Z,29.70
2023-02-06T19:42:21.920Z,32.60
2023-02-06T19:44:56.191Z,35.33
2023-02-06T19:47:26.054Z,31.15
2023-02-06T19:49:56.159Z,34.58
2023-02-06T19:52:28.684Z,31.00
2023-02-06T19:54:58.403Z,31.70
2023-02-06T19:57:28.295Z,38.65
2023-02-06T19:59:59.618Z,38.65
2023-02-06T20:02:29.003Z,38.47
2023-02-06T20:05:00.362Z,32.75
2023-02-06T20:07:31.847Z,41.22
2023-02-06T20:10:01.629Z,47.10
2023-02-06T20:12:31.859Z,39.97
2023-02-06T20:15:03.630Z,40.35
2023-02-06T20:17:33.339Z,43.25
2023-02-06T20:20:03.062Z,45.75
2023-02-06T20:22:33.007Z,50.25
2023-02-06T20:25:02.789Z,46.88
2023-02-06T20:27:32.684Z,48.38
2023-02-06T20:30:03.966Z,40.40
2023-02-06T20:32:33.694Z,41.50
2023-02-06T20:35:03.370Z,43.83
2023-02-06T20:37:33.015Z,48.80
2023-02-06T20:40:02.907Z,38.58
2023-02-06T20:42:32.620Z,44.67
2023-02-06T20:45:04.331Z,35.20
2023-02-06T20:47:34.036Z,40.92
2023-02-06T20:50:06.043Z,63.05
2023-02-06T20:52:37.301Z,44.38
2023-02-06T20:55:07.905Z,42.10
2023-02-06T20:57:39.180Z,48.25
2023-02-06T21:00:12.102Z,45.97
2023-02-06T21:02:41.863Z,41.92
2023-02-06T21:05:11.483Z,49.58
2023-02-06T21:07:42.015Z,42.22
2023-02-06T21:10:12.031Z,52.47
2023-02-06T21:13:06.691Z,39.20
2023-02-06T21:15:38.186Z,47.42
2023-02-06T21:18:07.936Z,44.40
2023-02-06T21:20:37.818Z,44.60
2023-02-06T21:23:08.052Z,47.78
2023-02-06T21:25:38.364Z,39.70
2023-02-06T21:28:08.486Z,43.05
2023-02-06T21:30:40.372Z,49.38
2023-02-06T21:33:10.854Z,47.55
2023-02-06T21:35:41.024Z,43.08
2023-02-06T21:38:11.050Z,42.85
2023-02-06T21:40:41.141Z,45.80
2023-02-06T21:43:10.807Z,39.22
2023-02-06T21:45:42.954Z,35.40
2023-02-06T21:48:12.921Z,44.78
2023-02-06T21:50:45.133Z,49.33
2023-02-06T21:53:14.932Z,34.97
2023-02-06T21:55:45.300Z,42.92
2023-02-06T21:58:16.018Z,38.88
2023-02-06T22:00:49.188Z,47.38
2023-02-06T22:03:19.002Z,44.13
2023-02-06T22:05:48.834Z,40.33
2023-02-06T22:08:18.580Z,44.85
2023-02-06T22:10:48.650Z,54.15
2023-02-06T22:13:18.675Z,43.78
2023-02-06T22:15:52.683Z,46.42
2023-02-06T22:18:22.967Z,47.47
2023-02-06T22:20:53.128Z,51.42
2023-02-06T22:23:23.161Z,39.05
2023-02-06T22:25:52.620Z,46.33
2023-02-06T22:28:24.605Z,44.58
2023-02-06T22:30:56.391Z,54.47
2023-02-06T22:33:25.985Z,41.20
2023-02-06T22:35:55.862Z,43.05
2023-02-06T22:38:25.609Z,44.67
2023-02-06T22:41:01.930Z,47.13
2023-02-06T22:43:33.004Z,41.08
2023-02-06T22:46:04.822Z,44.60
2023-02-06T22:48:34.784Z,42.53
2023-02-06T22:51:07.451Z,42.03
2023-02-06T22:53:38.579Z,48.42
2023-02-06T22:56:29.452Z,47.88
2023-02-06T22:59:01.151Z,40.08
2023-02-06T23:01:34.007Z,50.47
2023-02-06T23:04:05.374Z,33.70
2023-02-06T23:06:36.039Z,50.55
2023-02-06T23:09:08.382Z,56.45
2023-02-06T23:11:38.703Z,44.78
2023-02-06T23:14:09.413Z,50.60
2023-02-06T23:16:40.839Z,42.97
2023-02-06T23:19:11.062Z,47.83
2023-02-06T23:21:42.353Z,39.42
2023-02-06T23:24:13.307Z,37.85
2023-02-06T23:26:44.773Z,38.38
2023-02-06T23:29:17.532Z,35.08
2023-02-06T23:31:50.968Z,38.10
2023-02-06T23:34:24.020Z,44.13
2023-02-06T23:36:54.120Z,49.17
2023-02-06T23:39:24.381Z,42.95
2023-02-06T23:41:54.080Z,34.88
2023-02-06T23:44:23.837Z,42.45
2023-02-06T23:46:55.123Z,36.97
2023-02-06T23:49:24.758Z,37.83
2023-02-06T23:51:54.441Z,52.35
2023-02-06T23:54:24.232Z,49.05
2023-02-06T23:56:53.963Z,49.67
2023-02-06T23:59:23.693Z,50.25
